createdAt,value
2023-04-11T00:01:24.042Z,16.30
2023-04-11T00:03:51.193Z,15.05
2023-04-11T00:06:18.044Z,13.93
2023-04-11T00:08:44.888Z,12.50
2023-04-11T00:11:11.698Z,12.75
2023-04-11T00:13:38.571Z,13.77
2023-04-11T00:16:05.845Z,16.40
2023-04-11T00:18:32.768Z,15.60
2023-04-11T00:20:59.553Z,16.47
2023-04-11T00:23:26.380Z,16.88
2023-04-11T00:25:53.221Z,14.07
2023-04-11T00:28:20.053Z,13.55
2023-04-11T00:30:46.934Z,12.25
2023-04-11T00:33:13.854Z,13.87
2023-04-11T00:35:41.148Z,14.25
2023-04-11T00:38:08.019Z,12.50
2023-04-11T00:40:34.930Z,17.83
2023-04-11T00:43:01.762Z,15.55
2023-04-11T00:45:28.790Z,18.63
2023-04-11T00:47:55.938Z,18.15
2023-04-11T00:50:22.942Z,17.70
2023-04-11T00:52:51.676Z,16.05
2023-04-11T00:55:18.583Z,15.85
2023-04-11T00:57:45.460Z,14.37
2023-04-11T01:00:13.204Z,14.55
2023-04-11T01:02:41.198Z,15.50
2023-04-11T01:05:11.525Z,14.75
2023-04-11T01:07:40.766Z,14.80
2023-04-11T01:10:09.251Z,14.40
2023-04-11T01:12:38.251Z,14.50
2023-04-11T01:15:06.423Z,13.98
2023-04-11T01:17:33.392Z,15.88
2023-04-11T01:20:00.887Z,16.02
2023-04-11T01:22:28.830Z,13.60
2023-04-11T01:24:55.728Z,14.98
2023-04-11T01:27:22.619Z,13.32
2023-04-11T01:29:49.434Z,12.52
2023-04-11T01:32:16.712Z,14.02
2023-04-11T01:34:46.071Z,12.77
2023-04-11T01:37:13.145Z,13.65
2023-04-11T01:39:40.104Z,13.38
2023-04-11T01:42:07.183Z,10.85
2023-04-11T01:44:35.409Z,10.68
2023-04-11T01:47:02.354Z,10.73
2023-04-11T01:49:29.198Z,10.38
2023-04-11T01:51:56.170Z,10.68
2023-04-11T01:54:23.108Z,12.50
2023-04-11T01:56:50.346Z,9.80
2023-04-11T01:59:17.292Z,9.60
2023-04-11T02:01:44.241Z,9.95
2023-04-11T02:04:11.479Z,8.77
2023-04-11T02:06:38.583Z,9.05
2023-04-11T02:09:05.464Z,9.73
2023-04-11T02:11:32.420Z,9.27
2023-04-11T02:13:59.604Z,8.20
2023-04-11T02:16:26.542Z,7.82
2023-04-11T02:18:53.624Z,7.63
2023-04-11T02:21:20.664Z,7.68
2023-04-11T02:23:47.573Z,9.63
2023-04-11T02:26:14.621Z,8.25
2023-04-11T02:28:41.567Z,10.43
2023-04-11T02:31:08.783Z,9.90
2023-04-11T02:33:35.747Z,9.60
2023-04-11T02:36:02.654Z,9.27
2023-04-11T02:38:29.887Z,10.07
2023-04-11T02:40:56.829Z,10.65
2023-04-11T02:43:23.925Z,9.60
2023-04-11T02:45:54.186Z,8.75
2023-04-11T02:48:23.444Z,9.43
2023-04-11T02:50:50.321Z,9.45
2023-04-11T02:53:17.237Z,7.53
2023-04-11T02:55:44.214Z,8.35
2023-04-11T02:58:10.969Z,8.00
2023-04-11T03:00:37.908Z,9.63
2023-04-11T03:03:05.181Z,10.23
2023-04-11T03:05:32.182Z,10.10
2023-04-11T03:07:59.013Z,8.23
2023-04-11T03:10:25.913Z,8.95
2023-04-11T03:12:52.774Z,10.17
2023-04-11T03:15:19.682Z,9.70
2023-04-11T03:17:46.721Z,10.57
2023-04-11T03:20:13.618Z,9.50
2023-04-11T03:22:40.467Z,10.20
2023-04-11T03:25:07.844Z,11.43
2023-04-11T03:27:34.704Z,11.00
2023-04-11T03:30:01.544Z,11.80
2023-04-11T03:32:28.502Z,12.65
2023-04-11T03:34:55.452Z,12.35
2023-04-11T03:37:22.311Z,10.30
2023-04-11T03:39:49.368Z,11.07
2023-04-11T03:42:16.173Z,12.10
2023-04-11T03:44:43.050Z,10.80
2023-04-11T03:47:10.052Z,12.07
2023-04-11T03:49:36.890Z,11.73
2023-04-11T03:52:04.262Z,10.27
2023-04-11T03:54:31.217Z,10.05
2023-04-11T03:56:58.064Z,10.27
2023-04-11T03:59:24.929Z,10.18
2023-04-11T04:01:51.990Z,10.10
2023-04-11T04:04:19.063Z,10.13
2023-04-11T04:06:45.997Z,9.13
2023-04-11T04:09:13.004Z,9.75
2023-04-11T04:11:39.799Z,9.93
2023-04-11T04:14:06.664Z,9.87
2023-04-11T04:16:33.599Z,9.43
2023-04-11T04:19:00.398Z,10.38
2023-04-11T04:21:27.211Z,11.52
2023-04-11T04:23:54.564Z,10.43
2023-04-11T04:26:21.595Z,9.23
2023-04-11T04:28:48.511Z,13.10
2023-04-11T04:31:15.612Z,11.13
2023-04-11T04:33:43.108Z,11.73
2023-04-11T04:36:10.783Z,10.25
2023-04-11T04:38:37.687Z,11.67
2023-04-11T04:41:05.185Z,11.70
2023-04-11T04:43:32.950Z,12.48
2023-04-11T04:45:59.760Z,14.13
2023-04-11T04:48:26.622Z,13.50
2023-04-11T04:50:53.509Z,14.33
2023-04-11T04:53:20.402Z,13.90
2023-04-11T04:55:47.146Z,14.73
2023-04-11T04:58:13.946Z,13.60
2023-04-11T05:00:40.804Z,14.68
2023-04-11T05:03:07.824Z,13.47
2023-04-11T05:05:34.871Z,12.95
2023-04-11T05:08:01.880Z,13.38
2023-04-11T05:10:28.750Z,12.38
2023-04-11T05:12:55.577Z,12.77
2023-04-11T05:15:23.889Z,13.80
2023-04-11T05:17:50.747Z,12.05
2023-04-11T05:20:17.590Z,12.30
2023-04-11T05:22:44.492Z,11.70
2023-04-11T05:25:11.264Z,11.82
2023-04-11T05:27:38.130Z,10.37
2023-04-11T05:30:06.075Z,11.10
2023-04-11T05:32:33.060Z,10.88
2023-04-11T05:34:59.958Z,9.43
2023-04-11T05:37:27.009Z,9.57
2023-04-11T05:39:53.909Z,9.73
2023-04-11T05:42:20.805Z,10.38
2023-04-11T05:44:47.743Z,9.57
2023-04-11T05:47:14.596Z,9.93
2023-04-11T05:49:41.393Z,9.45
2023-04-11T05:52:08.597Z,11.80
2023-04-11T05:54:37.109Z,10.98
2023-04-11T05:57:03.920Z,11.93
2023-04-11T05:59:31.703Z,12.80
2023-04-11T06:01:59.366Z,12.80
2023-04-11T06:04:26.531Z,11.50
2023-04-11T06:06:54.250Z,10.63
2023-04-11T06:09:21.093Z,12.52
2023-04-11T06:11:47.913Z,14.40
2023-04-11T06:14:14.907Z,9.20
2023-04-11T06:16:41.790Z,10.47
2023-04-11T06:19:08.624Z,15.48
2023-04-11T06:21:35.578Z,12.13
2023-04-11T06:24:09.248Z,10.73
2023-04-11T06:26:36.252Z,9.40
2023-04-11T06:29:07.355Z,11.37
2023-04-11T06:31:34.518Z,11.50
2023-04-11T06:34:02.150Z,10.63
2023-04-11T06:36:30.325Z,12.50
2023-04-11T06:38:57.161Z,10.27
2023-04-11T06:41:24.251Z,12.00
2023-04-11T06:43:51.097Z,11.50
2023-04-11T06:46:17.927Z,12.45
2023-04-11T06:48:44.802Z,9.88
2023-04-11T06:51:11.651Z,9.85
2023-04-11T06:53:38.532Z,10.93
2023-04-11T06:56:05.858Z,9.73
2023-04-11T06:58:32.717Z,11.20
2023-04-11T07:00:59.603Z,11.93
2023-04-11T07:03:26.612Z,10.07
2023-04-11T07:05:53.482Z,9.53
2023-04-11T07:08:20.288Z,14.57
2023-04-11T07:10:47.230Z,11.13
2023-04-11T07:13:14.119Z,11.02
2023-04-11T07:15:40.924Z,12.45
2023-04-11T07:18:07.795Z,13.90
2023-04-11T07:20:34.677Z,13.40
2023-04-11T07:23:01.484Z,11.98
2023-04-11T07:25:28.952Z,12.63
2023-04-11T07:27:55.831Z,11.93
2023-04-11T07:30:23.248Z,13.27
2023-04-11T07:32:50.136Z,15.63
2023-04-11T07:35:17.133Z,12.88
2023-04-11T07:37:44.035Z,7.38
2023-04-11T07:40:11.518Z,6.13
2023-04-11T07:42:38.375Z,8.13
2023-04-11T07:45:05.997Z,8.63
2023-04-11T07:47:33.010Z,8.75
2023-04-11T07:49:59.885Z,8.90
2023-04-11T07:52:26.741Z,8.00
2023-04-11T07:54:54.408Z,8.00
2023-04-11T07:57:21.272Z,8.40
2023-04-11T07:59:48.074Z,9.30
2023-04-11T08:02:15.026Z,8.02
2023-04-11T08:04:42.369Z,8.68
2023-04-11T08:07:09.234Z,9.37
2023-04-11T08:09:36.082Z,9.85
2023-04-11T08:12:02.966Z,11.00
2023-04-11T08:14:29.799Z,10.50
2023-04-11T08:16:56.831Z,10.93
2023-04-11T08:19:23.705Z,10.73
2023-04-11T08:21:50.564Z,9.93
2023-04-11T08:24:17.376Z,10.73
2023-04-11T08:26:44.333Z,11.48
2023-04-11T08:29:11.397Z,10.88
2023-04-11T08:31:43.361Z,11.37
2023-04-11T08:34:11.017Z,15.52
2023-04-11T08:36:37.855Z,12.38
2023-04-11T08:39:04.797Z,15.32
2023-04-11T08:41:33.644Z,11.88
2023-04-11T08:44:00.966Z,13.93
2023-04-11T08:46:30.619Z,13.02
2023-04-11T08:48:57.663Z,11.35
2023-04-11T08:51:26.153Z,11.10
2023-04-11T08:53:54.591Z,10.32
2023-04-11T08:56:21.419Z,12.10
2023-04-11T08:58:48.404Z,10.90
2023-04-11T09:01:25.197Z,10.52
2023-04-11T09:03:52.128Z,11.80
2023-04-11T09:06:19.113Z,10.77
2023-04-11T09:08:46.074Z,9.43
2023-04-11T09:11:12.861Z,9.35
2023-04-11T09:13:39.636Z,11.63
2023-04-11T09:16:11.696Z,10.77
2023-04-11T09:18:43.966Z,10.20
2023-04-11T09:21:13.265Z,10.27
2023-04-11T09:23:40.745Z,9.65
2023-04-11T09:26:09.223Z,8.93
2023-04-11T09:28:46.797Z,8.50
2023-04-11T09:31:13.937Z,7.93
2023-04-11T09:33:56.084Z,8.13
2023-04-11T09:36:25.246Z,9.40
2023-04-11T09:38:52.225Z,11.10
2023-04-11T09:41:33.388Z,8.90
2023-04-11T09:44:00.808Z,6.95
2023-04-11T09:46:28.214Z,7.70
2023-04-11T09:48:55.542Z,8.18
2023-04-11T09:53:52.896Z,7.85
2023-04-11T09:56:20.635Z,7.95
2023-04-11T09:58:47.913Z,8.70
2023-04-11T10:01:14.814Z,8.95
2023-04-11T10:03:41.718Z,9.13
2023-04-11T10:06:21.586Z,10.70
2023-04-11T10:08:50.659Z,11.75
2023-04-11T10:11:18.296Z,10.33
2023-04-11T10:13:46.600Z,8.13
2023-04-11T10:16:16.214Z,10.57
2023-04-11T10:18:55.131Z,10.10
2023-04-11T10:21:27.840Z,10.32
2023-04-11T10:24:09.936Z,11.50
2023-04-11T10:26:56.925Z,10.18
2023-04-11T10:29:29.912Z,10.50
2023-04-11T10:32:17.011Z,12.10
2023-04-11T10:34:52.692Z,9.32
2023-04-11T10:37:40.311Z,9.13
2023-04-11T10:40:08.201Z,10.35
2023-04-11T10:42:43.044Z,9.65
2023-04-11T10:45:26.144Z,10.57
2023-04-11T10:47:59.069Z,8.18
2023-04-11T10:50:25.967Z,9.27
2023-04-11T10:52:58.041Z,10.43
2023-04-11T10:55:26.904Z,9.70
2023-04-11T10:58:17.509Z,10.55
2023-04-11T11:00:47.334Z,9.75
2023-04-11T11:03:28.491Z,8.50
2023-04-11T11:06:03.528Z,8.50
2023-04-11T11:08:38.354Z,8.57
2023-04-11T11:11:06.745Z,9.32
2023-04-11T11:13:43.324Z,9.80
2023-04-11T11:16:14.696Z,10.07
2023-04-11T11:18:45.631Z,9.52
2023-04-11T11:21:17.035Z,9.60
2023-04-11T11:24:01.109Z,10.10
2023-04-11T11:26:42.178Z,8.60
2023-04-11T11:29:10.373Z,9.63
2023-04-11T11:31:45.202Z,8.05
2023-04-11T11:34:23.422Z,7.50
2023-04-11T11:36:51.560Z,9.35
2023-04-11T11:39:20.430Z,7.70
2023-04-11T11:41:48.941Z,7.80
2023-04-11T11:44:22.717Z,8.52
2023-04-11T11:47:06.731Z,8.55
2023-04-11T11:49:53.584Z,8.13
2023-04-11T11:52:35.508Z,7.18
2023-04-11T11:55:03.895Z,8.97
2023-04-11T11:57:30.826Z,9.02
2023-04-11T12:00:00.706Z,8.95
2023-04-11T12:02:28.423Z,8.80
2023-04-11T12:05:04.876Z,8.68
2023-04-11T12:07:32.867Z,10.27
2023-04-11T12:10:07.470Z,9.70
2023-04-11T12:12:42.503Z,10.73
2023-04-11T12:15:29.292Z,9.40
2023-04-11T12:17:56.266Z,8.00
2023-04-11T12:20:31.198Z,8.87
2023-04-11T12:22:58.156Z,10.93
2023-04-11T12:25:25.089Z,9.50
2023-04-11T12:27:52.024Z,10.38
2023-04-11T12:30:18.981Z,9.70
2023-04-11T12:32:45.879Z,10.77
2023-04-11T12:35:13.171Z,8.05
2023-04-11T12:37:40.532Z,9.43
2023-04-11T12:40:08.223Z,8.25
2023-04-11T12:44:22.884Z,9.40
2023-04-11T12:45:22.163Z,9.93
2023-04-11T12:47:49.005Z,7.63
2023-04-11T12:50:15.849Z,9.23
2023-04-11T12:52:43.006Z,8.60
2023-04-11T12:55:10.200Z,9.68
2023-04-11T12:57:37.169Z,9.03
2023-04-11T13:00:04.417Z,8.40
2023-04-11T13:02:38.267Z,10.98
2023-04-11T13:05:09.917Z,10.77
2023-04-11T13:07:36.841Z,10.32
2023-04-11T13:10:07.568Z,10.20
2023-04-11T13:12:34.554Z,9.35
2023-04-11T13:15:01.399Z,9.23
2023-04-11T13:17:30.983Z,9.80
2023-04-11T13:19:57.921Z,8.68
2023-04-11T13:22:24.728Z,8.47
2023-04-11T13:24:51.617Z,10.48
2023-04-11T13:27:18.438Z,9.60
2023-04-11T13:29:45.229Z,10.23
2023-04-11T13:32:12.085Z,9.82
2023-04-11T13:34:39.097Z,9.27
2023-04-11T13:37:05.913Z,10.05
2023-04-11T13:39:32.762Z,10.93
2023-04-11T13:41:59.789Z,10.85
2023-04-11T13:44:29.196Z,9.93
2023-04-11T13:46:55.985Z,9.30
2023-04-11T13:49:22.950Z,9.25
2023-04-11T13:51:49.792Z,10.93
2023-04-11T13:54:16.638Z,9.02
2023-04-11T13:56:43.681Z,10.80
2023-04-11T13:59:10.525Z,8.90
2023-04-11T14:01:37.692Z,8.70
2023-04-11T14:04:04.934Z,8.75
2023-04-11T14:06:31.800Z,9.23
2023-04-11T14:08:58.681Z,9.35
2023-04-11T14:11:25.554Z,11.00
2023-04-11T14:13:52.331Z,9.10
2023-04-11T14:16:19.314Z,10.52
2023-04-11T14:18:46.251Z,9.90
2023-04-11T14:21:13.114Z,8.18
2023-04-11T14:23:39.955Z,8.00
2023-04-11T14:26:07.121Z,8.00
2023-04-11T14:28:34.017Z,8.05
2023-04-11T14:31:01.021Z,9.88
2023-04-11T14:33:27.958Z,10.25
2023-04-11T14:35:54.849Z,8.90
2023-04-11T14:38:21.720Z,8.90
2023-04-11T14:40:48.712Z,8.45
2023-04-11T14:43:15.558Z,8.02
2023-04-11T14:45:42.540Z,8.18
2023-04-11T14:48:09.598Z,8.67
2023-04-11T14:50:36.410Z,8.70
2023-04-11T14:53:03.203Z,8.20
2023-04-11T14:55:30.108Z,6.90
2023-04-11T14:57:56.950Z,7.35
2023-04-11T15:00:24.286Z,8.00
2023-04-11T15:02:53.508Z,7.78
2023-04-11T15:05:23.002Z,7.13
2023-04-11T15:07:51.289Z,9.18
2023-04-11T15:10:22.974Z,7.93
2023-04-11T15:12:50.241Z,6.80
2023-04-11T15:15:17.261Z,6.70
2023-04-11T15:17:48.539Z,8.38
2023-04-11T15:20:16.328Z,6.25
2023-04-11T15:22:45.717Z,7.65
2023-04-11T15:25:15.058Z,7.33
2023-04-11T15:27:42.285Z,7.28
2023-04-11T15:30:09.612Z,8.13
2023-04-11T15:32:36.606Z,8.43
2023-04-11T15:35:03.492Z,7.70
2023-04-11T15:37:30.305Z,7.37
2023-04-11T15:39:57.194Z,7.20
2023-04-11T15:42:24.077Z,6.60
2023-04-11T15:44:50.924Z,7.82
2023-04-11T15:47:18.134Z,7.15
2023-04-11T15:49:45.037Z,7.50
2023-04-11T15:52:11.895Z,6.70
2023-04-11T15:54:38.897Z,7.70
2023-04-11T15:57:05.844Z,17.30
2023-04-11T15:59:33.785Z,7.95
2023-04-11T16:02:00.804Z,7.40
2023-04-11T16:04:27.759Z,7.85
2023-04-11T16:06:54.604Z,7.78
2023-04-11T16:09:21.660Z,9.10
2023-04-11T16:11:48.493Z,7.82
2023-04-11T16:14:15.371Z,8.47
2023-04-11T16:16:45.378Z,8.30
2023-04-11T16:19:12.168Z,9.45
2023-04-11T16:21:39.035Z,8.98
2023-04-11T16:24:05.981Z,10.75
2023-04-11T16:26:32.898Z,9.90
2023-04-11T16:29:02.295Z,10.18
2023-04-11T16:31:29.555Z,11.30
2023-04-11T16:33:56.551Z,11.00
2023-04-11T16:36:23.897Z,12.25
2023-04-11T16:38:50.849Z,10.33
2023-04-11T16:41:17.869Z,11.10
2023-04-11T16:43:44.931Z,10.60
2023-04-11T16:46:13.630Z,8.70
2023-04-11T16:48:44.142Z,10.63
2023-04-11T16:51:11.452Z,10.03
2023-04-11T16:53:39.441Z,11.82
2023-04-11T16:56:06.534Z,14.23
2023-04-11T16:58:33.548Z,15.70
2023-04-11T17:01:01.117Z,13.43
2023-04-11T17:03:28.313Z,12.20
2023-04-11T17:05:55.361Z,14.88
2023-04-11T17:08:22.281Z,12.90
2023-04-11T17:10:49.170Z,13.95
2023-04-11T17:13:16.106Z,14.38
2023-04-11T17:15:43.180Z,12.67
2023-04-11T17:18:09.982Z,12.90
2023-04-11T17:20:36.837Z,12.05
2023-04-11T17:23:03.704Z,13.35
2023-04-11T17:25:30.522Z,15.88
2023-04-11T17:27:57.841Z,14.27
2023-04-11T17:30:24.811Z,13.95
2023-04-11T17:32:51.661Z,15.18
2023-04-11T17:35:18.692Z,15.50
2023-04-11T17:37:45.570Z,15.95
2023-04-11T17:40:12.857Z,13.37
2023-04-11T17:42:40.035Z,13.38
2023-04-11T17:45:16.528Z,13.18
2023-04-11T17:47:44.405Z,15.00
2023-04-11T17:50:16.545Z,13.63
2023-04-11T17:52:49.849Z,14.27
2023-04-11T17:55:29.665Z,13.88
2023-04-11T17:57:56.576Z,12.15
2023-04-11T18:00:23.845Z,11.65
2023-04-11T18:02:53.488Z,11.02
2023-04-11T18:05:25.361Z,12.00
2023-04-11T18:07:54.550Z,11.10
2023-04-11T18:10:21.736Z,11.95
2023-04-11T18:12:50.874Z,10.73
2023-04-11T18:15:18.288Z,8.43
2023-04-11T18:17:45.469Z,10.70
2023-04-11T18:20:13.739Z,11.43
2023-04-11T18:29:00.908Z,13.35
2023-04-11T18:31:27.897Z,14.27
2023-04-11T18:33:55.279Z,15.63
2023-04-11T18:39:54.237Z,19.95
2023-04-11T18:48:48.389Z,17.48
2023-04-11T18:51:15.381Z,17.80
2023-04-11T18:53:42.332Z,14.38
2023-04-11T18:56:10.411Z,16.52
2023-04-11T18:58:39.566Z,15.20
2023-04-11T19:01:14.792Z,15.18
2023-04-11T19:03:43.483Z,17.33
2023-04-11T19:06:13.554Z,15.88
2023-04-11T19:08:40.513Z,16.73
2023-04-11T19:11:10.561Z,17.20
2023-04-11T19:13:37.511Z,15.65
2023-04-11T19:16:05.112Z,16.77
2023-04-11T19:18:32.291Z,16.20
2023-04-11T19:20:59.256Z,18.88
2023-04-11T19:23:27.366Z,18.00
2023-04-11T19:25:54.436Z,20.27
2023-04-11T19:28:21.451Z,18.90
2023-04-11T19:30:48.949Z,17.75
2023-04-11T19:33:15.919Z,20.70
2023-04-11T19:35:42.881Z,20.33
2023-04-11T19:38:09.926Z,23.08
2023-04-11T19:40:36.901Z,19.90
2023-04-11T19:43:04.060Z,22.02
2023-04-11T19:45:32.255Z,25.17
2023-04-11T19:47:59.651Z,22.23
2023-04-11T19:50:26.520Z,24.83
2023-04-11T19:52:55.303Z,21.58
2023-04-11T19:55:22.599Z,21.33
2023-04-11T19:57:49.426Z,22.25
2023-04-11T20:00:16.686Z,23.63
2023-04-11T20:02:46.256Z,22.23
2023-04-11T20:05:20.232Z,20.42
2023-04-11T20:07:47.205Z,19.45
2023-04-11T20:10:15.508Z,19.25
2023-04-11T20:12:42.384Z,18.97
2023-04-11T20:15:09.737Z,19.50
2023-04-11T20:17:36.688Z,18.38
2023-04-11T20:20:03.680Z,19.58
2023-04-11T20:22:31.402Z,22.75
2023-04-11T20:24:58.457Z,18.33
2023-04-11T20:27:25.313Z,18.60
2023-04-11T20:29:52.300Z,15.52
2023-04-11T20:32:19.157Z,14.00
2023-04-11T20:34:46.055Z,14.93
2023-04-11T20:37:13.090Z,15.07
2023-04-11T20:39:39.927Z,14.45
2023-04-11T20:42:09.830Z,13.60
2023-04-11T20:44:36.881Z,15.05
2023-04-11T20:47:03.699Z,14.38
2023-04-11T20:49:30.518Z,14.53
2023-04-11T20:51:57.432Z,17.92
2023-04-11T20:54:24.346Z,17.55
2023-04-11T20:56:51.247Z,13.32
2023-04-11T20:59:18.236Z,12.63
2023-04-11T21:01:45.172Z,17.17
2023-04-11T21:04:12.044Z,16.58
2023-04-11T21:06:39.069Z,14.50
2023-04-11T21:09:05.954Z,16.95
2023-04-11T21:11:33.204Z,17.02
2023-04-11T21:14:00.155Z,14.80
2023-04-11T21:16:27.117Z,19.63
2023-04-11T21:18:54.042Z,18.35
2023-04-11T21:21:22.696Z,19.00
2023-04-11T21:23:49.516Z,21.13
2023-04-11T21:26:16.438Z,19.80
2023-04-11T21:28:43.942Z,19.58
2023-04-11T21:31:10.789Z,16.63
2023-04-11T21:33:37.591Z,15.40
2023-04-11T21:36:04.848Z,14.88
2023-04-11T21:38:31.631Z,15.33
2023-04-11T21:40:58.479Z,16.35
2023-04-11T21:43:25.465Z,15.77
2023-04-11T21:45:52.324Z,13.57
2023-04-11T21:48:19.185Z,13.30
2023-04-11T21:50:46.140Z,14.83
2023-04-11T21:53:13.286Z,13.60
2023-04-11T21:55:48.877Z,11.38
2023-04-11T21:58:26.218Z,14.77
2023-04-11T22:00:55.831Z,15.05
2023-04-11T22:03:23.020Z,15.67
2023-04-11T22:05:51.128Z,14.90
2023-04-11T22:08:19.759Z,15.75
2023-04-11T22:10:47.727Z,14.88
2023-04-11T22:13:17.259Z,15.85
2023-04-11T22:15:45.881Z,17.00
2023-04-11T22:18:13.258Z,17.20
2023-04-11T22:20:41.629Z,17.33
2023-04-11T22:23:08.529Z,17.25
2023-04-11T22:25:38.594Z,16.02
2023-04-11T22:28:05.580Z,17.07
2023-04-11T22:30:32.553Z,17.75
2023-04-11T22:32:59.845Z,20.15
2023-04-11T22:35:26.732Z,19.77
2023-04-11T22:37:55.020Z,19.35
2023-04-11T22:40:21.976Z,19.03
2023-04-11T22:42:50.358Z,17.52
2023-04-11T22:45:17.578Z,17.10
2023-04-11T22:47:44.448Z,17.00
2023-04-11T22:50:12.495Z,17.80
2023-04-11T22:52:39.559Z,17.40
2023-04-11T22:55:06.882Z,14.10
2023-04-11T22:57:35.155Z,14.25
2023-04-11T23:00:02.316Z,18.75
2023-04-11T23:02:29.560Z,16.52
2023-04-11T23:04:56.497Z,17.37
2023-04-11T23:07:26.182Z,16.25
2023-04-11T23:09:53.051Z,17.40
2023-04-11T23:12:19.937Z,18.27
2023-04-11T23:14:47.051Z,16.63
2023-04-11T23:17:13.932Z,18.00
2023-04-11T23:19:41.020Z,17.45
2023-04-11T23:22:23.709Z,17.45
2023-04-11T23:24:50.576Z,18.50
2023-04-11T23:27:17.352Z,18.15
2023-04-11T23:29:52.114Z,16.07
2023-04-11T23:32:20.716Z,18.13
2023-04-11T23:34:47.521Z,18.67
2023-04-11T23:37:14.478Z,18.30
2023-04-11T23:39:41.752Z,19.08
2023-04-11T23:42:08.579Z,19.27
2023-04-11T23:44:35.464Z,20.17
2023-04-11T23:47:02.309Z,18.40
2023-04-11T23:49:29.232Z,19.50
2023-04-11T23:51:56.157Z,19.83
2023-04-11T23:54:22.998Z,18.33
2023-04-11T23:56:49.853Z,18.27
2023-04-11T23:59:16.784Z,19.75
